aviador You're here:

UGTB Decoded Metar

TBILISI/NOVO-AL in GEORGIA
Report Time2017-11-24 10:30:00
UTC Time2017-11-24 11:05:07
Flight Rules vfr VFR
Wind310° at 14 kt
W.Decomp.*RWY 31: 14.0 kt HW 1 kt LCW
W.Rank310° ranks 1
Current wind is below 310° avg. (17.6)
Visibility9999 m
Phenomena:N/A
Clouds:N/A
Expected CloudBase > 3,600 ft AGL from Temp-Dew spread
CeilingNone
Temp05°C (ISA -7)
Dew Point-4°C (53% RH)
AAT-2.5°C
QNH1019 hPa
Density Alt673 ft
Elevation1,624 ft
Report Wrong Elevation
Raw Report
METAR UGTB 241030Z 31014KT CAVOK 05/M04 Q1019 R31L/CLRD70 NOSIG=

Extra information for UGTB:More info

Metar Taf Metar & Taf Last 4 Metars F.Rules Stats Wind Profile Meteogram Temp Stats Airport Information Weather charts Add Link Nearby VenuesMetar ALERT Operation Metar Decoded Social comments